La Reforma, Texas
Current Conditions -  °F | °C
As of 12:15 AM on Saturday 29 Nov 2014 (Local Time) from KEBG Reporting Station
Clear Clear  
Wind Chill: 59°   Ceiling: Unl
Heat Index: 59°   Visibility: 10mi
Dew Point: 55°   Wind: 3mph
Humidity: 88%   Direction: 150°SSE
Pressure: 30.13"   Gusts: NA
Location:  26.6829°N, 98.4118°W
Report Text: KEBG 290615Z AUTO 15003KT 10SM CLR 15/13 A3013 RMK AO2 T01500130
Loading
Personal Weather Stations






























Interactive Weather Map New forecast layout! Learn more

10-Day Weather Forecast

Advertisements
Track Severe Weather on mobile